sensor_id;sensor_type;location;lat;lon;timestamp;P1;durP1;ratioP1;P2;durP2;ratioP2
53040;SDS011;39326;42.650;23.248;2023-02-20T00:00:52;10.30;;;9.20;;
53040;SDS011;39326;42.650;23.248;2023-02-20T00:03:17;12.13;;;8.87;;
53040;SDS011;39326;42.650;23.248;2023-02-20T00:05:43;9.17;;;7.77;;
53040;SDS011;39326;42.650;23.248;2023-02-20T00:08:08;10.30;;;9.20;;
53040;SDS011;39326;42.650;23.248;2023-02-20T00:10:34;10.10;;;9.10;;
53040;SDS011;39326;42.650;23.248;2023-02-20T00:12:59;10.60;;;9.50;;
53040;SDS011;39326;42.650;23.248;2023-02-20T00:15:24;11.67;;;10.47;;
53040;SDS011;39326;42.650;23.248;2023-02-20T00:17:50;11.13;;;10.13;;
53040;SDS011;39326;42.650;23.248;2023-02-20T00:20:18;11.27;;;10.23;;
53040;SDS011;39326;42.650;23.248;2023-02-20T00:22:45;11.30;;;10.20;;
53040;SDS011;39326;42.650;23.248;2023-02-20T00:25:11;11.90;;;10.80;;
53040;SDS011;39326;42.650;23.248;2023-02-20T00:27:37;11.60;;;10.57;;
53040;SDS011;39326;42.650;23.248;2023-02-20T00:30:03;9.83;;;8.83;;
53040;SDS011;39326;42.650;23.248;2023-02-20T00:32:29;10.27;;;9.27;;
53040;SDS011;39326;42.650;23.248;2023-02-20T00:34:54;11.03;;;9.90;;
53040;SDS011;39326;42.650;23.248;2023-02-20T00:37:20;9.90;;;8.90;;
53040;SDS011;39326;42.650;23.248;2023-02-20T00:39:45;10.60;;;9.60;;
53040;SDS011;39326;42.650;23.248;2023-02-20T00:42:11;11.10;;;10.10;;
53040;SDS011;39326;42.650;23.248;2023-02-20T00:44:36;9.97;;;8.97;;
53040;SDS011;39326;42.650;23.248;2023-02-20T00:47:01;10.97;;;9.73;;
53040;SDS011;39326;42.650;23.248;2023-02-20T00:49:27;9.00;;;7.37;;
53040;SDS011;39326;42.650;23.248;2023-02-20T00:51:52;8.10;;;7.40;;
53040;SDS011;39326;42.650;23.248;2023-02-20T00:54:18;7.03;;;6.33;;
53040;SDS011;39326;42.650;23.248;2023-02-20T00:56:44;6.23;;;5.63;;
53040;SDS011;39326;42.650;23.248;2023-02-20T00:59:09;7.10;;;5.50;;
53040;SDS011;39326;42.650;23.248;2023-02-20T01:01:35;6.30;;;5.73;;
53040;SDS011;39326;42.650;23.248;2023-02-20T01:04:00;6.93;;;6.33;;
53040;SDS011;39326;42.650;23.248;2023-02-20T01:06:25;9.10;;;8.30;;
53040;SDS011;39326;42.650;23.248;2023-02-20T01:08:51;9.80;;;8.60;;
53040;SDS011;39326;42.650;23.248;2023-02-20T01:11:16;9.20;;;8.30;;
53040;SDS011;39326;42.650;23.248;2023-02-20T01:13:42;8.93;;;8.13;;
53040;SDS011;39326;42.650;23.248;2023-02-20T01:16:07;10.10;;;8.03;;
53040;SDS011;39326;42.650;23.248;2023-02-20T01:18:33;9.80;;;8.90;;
53040;SDS011;39326;42.650;23.248;2023-02-20T01:20:59;11.03;;;10.03;;
53040;SDS011;39326;42.650;23.248;2023-02-20T01:23:24;10.93;;;9.93;;
53040;SDS011;39326;42.650;23.248;2023-02-20T01:25:50;11.50;;;10.40;;
53040;SDS011;39326;42.650;23.248;2023-02-20T01:28:15;11.30;;;10.17;;
53040;SDS011;39326;42.650;23.248;2023-02-20T01:30:41;11.90;;;10.70;;
53040;SDS011;39326;42.650;23.248;2023-02-20T01:33:07;10.63;;;9.63;;
53040;SDS011;39326;42.650;23.248;2023-02-20T01:35:32;11.27;;;10.27;;
53040;SDS011;39326;42.650;23.248;2023-02-20T01:37:58;11.40;;;10.20;;
53040;SDS011;39326;42.650;23.248;2023-02-20T01:40:25;11.50;;;10.50;;
53040;SDS011;39326;42.650;23.248;2023-02-20T01:42:51;10.63;;;9.67;;
53040;SDS011;39326;42.650;23.248;2023-02-20T01:47:45;12.93;;;10.03;;
53040;SDS011;39326;42.650;23.248;2023-02-20T01:50:10;10.87;;;9.80;;
53040;SDS011;39326;42.650;23.248;2023-02-20T01:52:38;11.77;;;10.23;;
53040;SDS011;39326;42.650;23.248;2023-02-20T01:55:10;12.33;;;11.03;;
53040;SDS011;39326;42.650;23.248;2023-02-20T01:57:49;10.53;;;9.43;;
53040;SDS011;39326;42.650;23.248;2023-02-20T02:00:19;11.80;;;10.60;;
53040;SDS011;39326;42.650;23.248;2023-02-20T02:02:56;10.13;;;9.10;;
53040;SDS011;39326;42.650;23.248;2023-02-20T02:05:26;9.63;;;8.67;;
53040;SDS011;39326;42.650;23.248;2023-02-20T02:07:54;6.40;;;5.80;;
53040;SDS011;39326;42.650;23.248;2023-02-20T02:10:25;5.30;;;4.80;;
53040;SDS011;39326;42.650;23.248;2023-02-20T02:12:56;6.17;;;5.63;;
53040;SDS011;39326;42.650;23.248;2023-02-20T02:15:23;6.07;;;5.47;;
53040;SDS011;39326;42.650;23.248;2023-02-20T02:35:22;3.40;;;3.10;;
53040;SDS011;39326;42.650;23.248;2023-02-20T02:40:42;2.90;;;2.60;;
53040;SDS011;39326;42.650;23.248;2023-02-20T02:52:07;3.50;;;3.07;;
53040;SDS011;39326;42.650;23.248;2023-02-20T02:54:35;3.00;;;2.80;;
53040;SDS011;39326;42.650;23.248;2023-02-20T02:59:51;3.23;;;2.93;;
53040;SDS011;39326;42.650;23.248;2023-02-20T03:02:23;3.00;;;2.80;;
53040;SDS011;39326;42.650;23.248;2023-02-20T03:04:52;3.00;;;2.43;;
53040;SDS011;39326;42.650;23.248;2023-02-20T03:07:20;2.33;;;2.13;;
53040;SDS011;39326;42.650;23.248;2023-02-20T03:09:49;3.20;;;2.73;;
53040;SDS011;39326;42.650;23.248;2023-02-20T03:12:18;2.43;;;2.23;;
53040;SDS011;39326;42.650;23.248;2023-02-20T03:14:49;2.70;;;2.50;;
53040;SDS011;39326;42.650;23.248;2023-02-20T03:17:41;4.07;;;2.60;;
53040;SDS011;39326;42.650;23.248;2023-02-20T03:20:12;3.00;;;2.80;;
53040;SDS011;39326;42.650;23.248;2023-02-20T03:22:45;2.83;;;2.63;;
53040;SDS011;39326;42.650;23.248;2023-02-20T03:25:17;3.40;;;2.73;;
53040;SDS011;39326;42.650;23.248;2023-02-20T03:28:02;2.70;;;2.50;;
53040;SDS011;39326;42.650;23.248;2023-02-20T03:33:29;2.00;;;1.80;;
53040;SDS011;39326;42.650;23.248;2023-02-20T03:36:31;2.23;;;1.90;;
53040;SDS011;39326;42.650;23.248;2023-02-20T03:39:21;2.30;;;2.10;;
53040;SDS011;39326;42.650;23.248;2023-02-20T03:42:11;2.43;;;2.23;;
53040;SDS011;39326;42.650;23.248;2023-02-20T03:44:58;2.60;;;2.40;;
53040;SDS011;39326;42.650;23.248;2023-02-20T03:47:26;2.37;;;2.17;;
53040;SDS011;39326;42.650;23.248;2023-02-20T03:49:53;2.70;;;2.50;;
53040;SDS011;39326;42.650;23.248;2023-02-20T03:52:20;3.20;;;2.47;;
53040;SDS011;39326;42.650;23.248;2023-02-20T03:54:47;2.33;;;2.13;;
53040;SDS011;39326;42.650;23.248;2023-02-20T03:57:15;2.57;;;2.37;;
53040;SDS011;39326;42.650;23.248;2023-02-20T03:59:47;1.57;;;1.47;;
53040;SDS011;39326;42.650;23.248;2023-02-20T04:02:30;1.63;;;1.53;;
53040;SDS011;39326;42.650;23.248;2023-02-20T04:05:00;2.30;;;2.10;;
53040;SDS011;39326;42.650;23.248;2023-02-20T04:07:38;1.70;;;1.60;;
53040;SDS011;39326;42.650;23.248;2023-02-20T04:10:11;1.90;;;1.80;;
53040;SDS011;39326;42.650;23.248;2023-02-20T04:12:43;1.80;;;1.70;;
53040;SDS011;39326;42.650;23.248;2023-02-20T04:15:11;1.87;;;1.77;;
53040;SDS011;39326;42.650;23.248;2023-02-20T04:18:10;2.00;;;1.80;;
53040;SDS011;39326;42.650;23.248;2023-02-20T04:20:33;2.23;;;2.03;;
53040;SDS011;39326;42.650;23.248;2023-02-20T04:23:04;1.90;;;1.80;;
53040;SDS011;39326;42.650;23.248;2023-02-20T04:25:46;2.60;;;1.90;;
53040;SDS011;39326;42.650;23.248;2023-02-20T04:28:22;2.47;;;2.27;;
53040;SDS011;39326;42.650;23.248;2023-02-20T04:30:48;2.47;;;2.27;;
53040;SDS011;39326;42.650;23.248;2023-02-20T04:33:15;1.53;;;1.43;;
53040;SDS011;39326;42.650;23.248;2023-02-20T04:35:41;2.17;;;1.93;;
53040;SDS011;39326;42.650;23.248;2023-02-20T04:38:07;1.90;;;1.80;;
53040;SDS011;39326;42.650;23.248;2023-02-20T04:40:33;2.10;;;1.90;;
53040;SDS011;39326;42.650;23.248;2023-02-20T04:42:58;1.60;;;1.50;;
53040;SDS011;39326;42.650;23.248;2023-02-20T04:45:24;2.37;;;2.17;;
53040;SDS011;39326;42.650;23.248;2023-02-20T04:47:49;1.93;;;1.73;;
53040;SDS011;39326;42.650;23.248;2023-02-20T04:50:18;2.20;;;2.00;;
53040;SDS011;39326;42.650;23.248;2023-02-20T04:52:46;2.20;;;2.00;;
53040;SDS011;39326;42.650;23.248;2023-02-20T04:55:11;1.93;;;1.80;;
53040;SDS011;39326;42.650;23.248;2023-02-20T04:57:37;2.17;;;1.90;;
53040;SDS011;39326;42.650;23.248;2023-02-20T05:00:03;1.80;;;1.70;;
53040;SDS011;39326;42.650;23.248;2023-02-20T05:02:29;1.57;;;1.47;;
53040;SDS011;39326;42.650;23.248;2023-02-20T05:04:55;1.93;;;1.80;;
53040;SDS011;39326;42.650;23.248;2023-02-20T05:07:20;1.90;;;1.80;;
53040;SDS011;39326;42.650;23.248;2023-02-20T05:09:46;2.20;;;2.00;;
53040;SDS011;39326;42.650;23.248;2023-02-20T05:12:11;2.67;;;2.00;;
53040;SDS011;39326;42.650;23.248;2023-02-20T05:14:37;2.00;;;1.80;;
53040;SDS011;39326;42.650;23.248;2023-02-20T05:17:02;2.17;;;2.03;;
53040;SDS011;39326;42.650;23.248;2023-02-20T05:19:28;2.10;;;1.63;;
53040;SDS011;39326;42.650;23.248;2023-02-20T05:21:53;2.17;;;2.00;;
53040;SDS011;39326;42.650;23.248;2023-02-20T05:24:37;3.77;;;2.53;;
53040;SDS011;39326;42.650;23.248;2023-02-20T05:27:02;2.00;;;1.90;;
53040;SDS011;39326;42.650;23.248;2023-02-20T05:29:28;3.10;;;2.90;;
53040;SDS011;39326;42.650;23.248;2023-02-20T05:31:53;3.67;;;3.37;;
53040;SDS011;39326;42.650;23.248;2023-02-20T05:34:19;3.33;;;3.13;;
53040;SDS011;39326;42.650;23.248;2023-02-20T05:36:46;3.63;;;3.37;;
53040;SDS011;39326;42.650;23.248;2023-02-20T05:39:12;3.53;;;3.33;;
53040;SDS011;39326;42.650;23.248;2023-02-20T05:41:37;2.60;;;2.40;;
53040;SDS011;39326;42.650;23.248;2023-02-20T05:44:03;3.60;;;3.30;;
53040;SDS011;39326;42.650;23.248;2023-02-20T05:46:29;3.10;;;2.90;;
53040;SDS011;39326;42.650;23.248;2023-02-20T05:48:54;2.57;;;2.37;;
53040;SDS011;39326;42.650;23.248;2023-02-20T05:51:21;2.60;;;2.40;;
53040;SDS011;39326;42.650;23.248;2023-02-20T05:53:48;2.63;;;2.43;;
53040;SDS011;39326;42.650;23.248;2023-02-20T05:56:13;2.47;;;2.23;;
53040;SDS011;39326;42.650;23.248;2023-02-20T05:58:40;2.43;;;2.23;;
53040;SDS011;39326;42.650;23.248;2023-02-20T06:01:08;2.73;;;2.53;;
53040;SDS011;39326;42.650;23.248;2023-02-20T06:03:33;3.20;;;2.90;;
53040;SDS011;39326;42.650;23.248;2023-02-20T06:05:59;3.30;;;3.10;;
53040;SDS011;39326;42.650;23.248;2023-02-20T06:08:24;3.10;;;2.80;;
53040;SDS011;39326;42.650;23.248;2023-02-20T06:10:50;3.27;;;2.97;;
53040;SDS011;39326;42.650;23.248;2023-02-20T06:13:15;3.50;;;3.30;;
53040;SDS011;39326;42.650;23.248;2023-02-20T06:15:40;3.03;;;2.83;;
53040;SDS011;39326;42.650;23.248;2023-02-20T06:18:06;3.40;;;3.17;;
53040;SDS011;39326;42.650;23.248;2023-02-20T06:20:32;3.97;;;3.63;;
53040;SDS011;39326;42.650;23.248;2023-02-20T06:22:57;3.90;;;3.60;;
53040;SDS011;39326;42.650;23.248;2023-02-20T06:25:23;3.13;;;2.93;;
53040;SDS011;39326;42.650;23.248;2023-02-20T06:27:48;3.60;;;3.30;;
53040;SDS011;39326;42.650;23.248;2023-02-20T06:30:14;3.30;;;3.00;;
53040;SDS011;39326;42.650;23.248;2023-02-20T06:32:39;4.50;;;3.63;;
53040;SDS011;39326;42.650;23.248;2023-02-20T06:35:05;3.80;;;3.43;;
53040;SDS011;39326;42.650;23.248;2023-02-20T06:37:30;3.07;;;2.80;;
53040;SDS011;39326;42.650;23.248;2023-02-20T06:39:56;3.10;;;2.90;;
53040;SDS011;39326;42.650;23.248;2023-02-20T06:42:21;4.13;;;3.50;;
53040;SDS011;39326;42.650;23.248;2023-02-20T06:44:47;5.07;;;3.77;;
53040;SDS011;39326;42.650;23.248;2023-02-20T06:47:12;3.20;;;2.87;;
53040;SDS011;39326;42.650;23.248;2023-02-20T06:49:37;3.20;;;3.00;;
53040;SDS011;39326;42.650;23.248;2023-02-20T06:52:03;2.70;;;2.50;;
53040;SDS011;39326;42.650;23.248;2023-02-20T06:54:30;4.57;;;3.43;;
53040;SDS011;39326;42.650;23.248;2023-02-20T06:56:57;3.40;;;3.10;;
53040;SDS011;39326;42.650;23.248;2023-02-20T06:59:24;2.80;;;2.50;;
53040;SDS011;39326;42.650;23.248;2023-02-20T07:01:49;3.60;;;3.30;;
53040;SDS011;39326;42.650;23.248;2023-02-20T07:04:16;4.33;;;3.53;;
53040;SDS011;39326;42.650;23.248;2023-02-20T07:06:48;6.07;;;3.07;;
53040;SDS011;39326;42.650;23.248;2023-02-20T07:09:14;3.60;;;3.30;;
53040;SDS011;39326;42.650;23.248;2023-02-20T07:11:41;3.00;;;2.60;;
53040;SDS011;39326;42.650;23.248;2023-02-20T07:14:06;3.30;;;3.00;;
53040;SDS011;39326;42.650;23.248;2023-02-20T07:16:32;3.20;;;2.90;;
53040;SDS011;39326;42.650;23.248;2023-02-20T07:18:58;4.50;;;2.97;;
53040;SDS011;39326;42.650;23.248;2023-02-20T07:21:23;2.70;;;2.50;;
53040;SDS011;39326;42.650;23.248;2023-02-20T07:23:49;2.30;;;2.00;;
53040;SDS011;39326;42.650;23.248;2023-02-20T07:26:25;2.73;;;2.20;;
53040;SDS011;39326;42.650;23.248;2023-02-20T07:28:52;2.50;;;2.00;;
53040;SDS011;39326;42.650;23.248;2023-02-20T07:31:18;2.40;;;2.20;;
53040;SDS011;39326;42.650;23.248;2023-02-20T07:33:44;2.87;;;2.67;;
53040;SDS011;39326;42.650;23.248;2023-02-20T07:36:10;3.00;;;2.70;;
53040;SDS011;39326;42.650;23.248;2023-02-20T07:38:37;2.70;;;2.50;;
53040;SDS011;39326;42.650;23.248;2023-02-20T07:41:03;2.30;;;2.10;;
53040;SDS011;39326;42.650;23.248;2023-02-20T07:43:29;2.07;;;1.87;;
53040;SDS011;39326;42.650;23.248;2023-02-20T07:45:54;1.70;;;1.60;;
53040;SDS011;39326;42.650;23.248;2023-02-20T07:48:20;1.80;;;1.70;;
53040;SDS011;39326;42.650;23.248;2023-02-20T07:50:45;4.80;;;1.60;;
53040;SDS011;39326;42.650;23.248;2023-02-20T07:53:14;1.83;;;1.63;;
53040;SDS011;39326;42.650;23.248;2023-02-20T07:55:41;1.30;;;1.20;;
53040;SDS011;39326;42.650;23.248;2023-02-20T07:58:07;0.80;;;0.80;;
53040;SDS011;39326;42.650;23.248;2023-02-20T08:00:32;0.93;;;0.90;;
53040;SDS011;39326;42.650;23.248;2023-02-20T08:02:58;0.83;;;0.80;;
53040;SDS011;39326;42.650;23.248;2023-02-20T08:05:24;0.60;;;0.60;;
53040;SDS011;39326;42.650;23.248;2023-02-20T08:07:50;1.20;;;0.90;;
53040;SDS011;39326;42.650;23.248;2023-02-20T08:10:18;0.80;;;0.80;;
53040;SDS011;39326;42.650;23.248;2023-02-20T08:12:46;0.80;;;0.70;;
53040;SDS011;39326;42.650;23.248;2023-02-20T08:15:13;0.70;;;0.60;;
53040;SDS011;39326;42.650;23.248;2023-02-20T08:17:39;0.60;;;0.50;;
53040;SDS011;39326;42.650;23.248;2023-02-20T08:20:05;0.80;;;0.77;;
53040;SDS011;39326;42.650;23.248;2023-02-20T08:22:32;0.53;;;0.50;;
53040;SDS011;39326;42.650;23.248;2023-02-20T08:24:58;0.73;;;0.70;;
53040;SDS011;39326;42.650;23.248;2023-02-20T08:27:24;0.67;;;0.67;;
53040;SDS011;39326;42.650;23.248;2023-02-20T08:29:49;0.67;;;0.57;;
53040;SDS011;39326;42.650;23.248;2023-02-20T08:32:15;0.97;;;0.63;;
53040;SDS011;39326;42.650;23.248;2023-02-20T08:34:40;0.50;;;0.50;;
53040;SDS011;39326;42.650;23.248;2023-02-20T08:37:05;0.40;;;0.40;;
53040;SDS011;39326;42.650;23.248;2023-02-20T08:39:33;0.50;;;0.40;;
53040;SDS011;39326;42.650;23.248;2023-02-20T08:41:59;0.40;;;0.40;;
53040;SDS011;39326;42.650;23.248;2023-02-20T08:44:24;0.40;;;0.40;;
53040;SDS011;39326;42.650;23.248;2023-02-20T08:46:50;0.83;;;0.60;;
53040;SDS011;39326;42.650;23.248;2023-02-20T08:49:16;0.60;;;0.40;;
53040;SDS011;39326;42.650;23.248;2023-02-20T08:51:45;0.60;;;0.50;;
53040;SDS011;39326;42.650;23.248;2023-02-20T08:54:17;0.70;;;0.70;;
53040;SDS011;39326;42.650;23.248;2023-02-20T08:56:42;1.37;;;0.60;;
53040;SDS011;39326;42.650;23.248;2023-02-20T08:59:08;0.67;;;0.50;;
53040;SDS011;39326;42.650;23.248;2023-02-20T09:01:33;1.17;;;0.67;;
53040;SDS011;39326;42.650;23.248;2023-02-20T09:03:59;0.50;;;0.40;;
53040;SDS011;39326;42.650;23.248;2023-02-20T09:06:24;1.33;;;0.70;;
53040;SDS011;39326;42.650;23.248;2023-02-20T09:08:52;0.47;;;0.47;;
53040;SDS011;39326;42.650;23.248;2023-02-20T09:11:18;0.50;;;0.50;;
53040;SDS011;39326;42.650;23.248;2023-02-20T09:13:44;0.40;;;0.40;;
53040;SDS011;39326;42.650;23.248;2023-02-20T09:16:11;1.17;;;0.70;;
53040;SDS011;39326;42.650;23.248;2023-02-20T09:18:40;0.67;;;0.60;;
53040;SDS011;39326;42.650;23.248;2023-02-20T09:21:08;0.30;;;0.30;;
53040;SDS011;39326;42.650;23.248;2023-02-20T09:23:35;1.90;;;0.70;;
53040;SDS011;39326;42.650;23.248;2023-02-20T09:26:00;1.50;;;0.73;;
53040;SDS011;39326;42.650;23.248;2023-02-20T09:28:26;0.50;;;0.50;;
53040;SDS011;39326;42.650;23.248;2023-02-20T09:30:51;0.90;;;0.67;;
53040;SDS011;39326;42.650;23.248;2023-02-20T09:33:19;0.47;;;0.47;;
53040;SDS011;39326;42.650;23.248;2023-02-20T09:35:44;0.65;;;0.60;;
53040;SDS011;39326;42.650;23.248;2023-02-20T09:38:13;0.75;;;0.60;;
53040;SDS011;39326;42.650;23.248;2023-02-20T09:40:39;0.50;;;0.47;;
53040;SDS011;39326;42.650;23.248;2023-02-20T09:46:11;0.63;;;0.57;;
53040;SDS011;39326;42.650;23.248;2023-02-20T09:51:16;0.50;;;0.50;;
53040;SDS011;39326;42.650;23.248;2023-02-20T09:56:22;0.50;;;0.50;;
53040;SDS011;39326;42.650;23.248;2023-02-20T10:01:54;19.35;;;18.05;;
53040;SDS011;39326;42.650;23.248;2023-02-20T10:04:42;1.20;;;1.08;;
53040;SDS011;39326;42.650;23.248;2023-02-20T10:10:20;0.80;;;0.80;;
53040;SDS011;39326;42.650;23.248;2023-02-20T10:16:27;0.90;;;0.80;;
53040;SDS011;39326;42.650;23.248;2023-02-20T10:21:25;0.98;;;0.80;;
53040;SDS011;39326;42.650;23.248;2023-02-20T10:26:49;2.05;;;0.60;;
53040;SDS011;39326;42.650;23.248;2023-02-20T10:29:22;0.63;;;0.60;;
53040;SDS011;39326;42.650;23.248;2023-02-20T10:31:51;0.60;;;0.60;;
53040;SDS011;39326;42.650;23.248;2023-02-20T10:37:14;0.50;;;0.50;;
53040;SDS011;39326;42.650;23.248;2023-02-20T10:39:51;1.00;;;0.68;;
53040;SDS011;39326;42.650;23.248;2023-02-20T10:42:23;1.30;;;1.00;;
53040;SDS011;39326;42.650;23.248;2023-02-20T10:45:02;2.67;;;0.70;;
53040;SDS011;39326;42.650;23.248;2023-02-20T10:48:05;1.05;;;0.80;;
53040;SDS011;39326;42.650;23.248;2023-02-20T10:53:07;1.20;;;0.70;;
53040;SDS011;39326;42.650;23.248;2023-02-20T10:55:51;0.85;;;0.70;;
53040;SDS011;39326;42.650;23.248;2023-02-20T10:58:37;1.80;;;0.70;;
53040;SDS011;39326;42.650;23.248;2023-02-20T11:01:20;0.60;;;0.60;;
53040;SDS011;39326;42.650;23.248;2023-02-20T11:06:29;0.63;;;0.63;;
53040;SDS011;39326;42.650;23.248;2023-02-20T11:08:58;0.80;;;0.70;;
53040;SDS011;39326;42.650;23.248;2023-02-20T11:13:49;1.00;;;0.80;;
53040;SDS011;39326;42.650;23.248;2023-02-20T11:16:50;1.20;;;1.10;;
53040;SDS011;39326;42.650;23.248;2023-02-20T11:19:11;0.70;;;0.70;;
53040;SDS011;39326;42.650;23.248;2023-02-20T11:21:44;1.13;;;0.65;;
53040;SDS011;39326;42.650;23.248;2023-02-20T11:24:59;0.50;;;0.50;;
53040;SDS011;39326;42.650;23.248;2023-02-20T11:27:16;0.63;;;0.63;;
53040;SDS011;39326;42.650;23.248;2023-02-20T11:32:38;0.90;;;0.60;;
53040;SDS011;39326;42.650;23.248;2023-02-20T11:37:46;0.60;;;0.60;;
53040;SDS011;39326;42.650;23.248;2023-02-20T11:42:41;1.00;;;0.85;;
53040;SDS011;39326;42.650;23.248;2023-02-20T11:45:12;4.38;;;2.50;;
53040;SDS011;39326;42.650;23.248;2023-02-20T11:47:46;3.85;;;2.75;;
53040;SDS011;39326;42.650;23.248;2023-02-20T11:50:38;6.18;;;3.65;;
53040;SDS011;39326;42.650;23.248;2023-02-20T11:53:21;1.98;;;1.50;;
53040;SDS011;39326;42.650;23.248;2023-02-20T11:56:05;0.70;;;0.70;;
53040;SDS011;39326;42.650;23.248;2023-02-20T11:58:33;1.52;;;0.60;;
53040;SDS011;39326;42.650;23.248;2023-02-20T12:00:59;0.40;;;0.40;;
53040;SDS011;39326;42.650;23.248;2023-02-20T12:03:27;0.85;;;0.57;;
53040;SDS011;39326;42.650;23.248;2023-02-20T12:05:54;0.50;;;0.50;;
53040;SDS011;39326;42.650;23.248;2023-02-20T12:11:24;0.73;;;0.63;;
53040;SDS011;39326;42.650;23.248;2023-02-20T12:13:52;0.70;;;0.63;;
53040;SDS011;39326;42.650;23.248;2023-02-20T12:16:31;0.90;;;0.60;;
53040;SDS011;39326;42.650;23.248;2023-02-20T12:19:08;0.88;;;0.63;;
53040;SDS011;39326;42.650;23.248;2023-02-20T12:21:56;1.35;;;0.57;;
53040;SDS011;39326;42.650;23.248;2023-02-20T12:26:54;0.85;;;0.40;;
53040;SDS011;39326;42.650;23.248;2023-02-20T12:29:45;0.98;;;0.55;;
53040;SDS011;39326;42.650;23.248;2023-02-20T12:32:21;0.52;;;0.52;;
53040;SDS011;39326;42.650;23.248;2023-02-20T12:43:11;0.43;;;0.43;;
53040;SDS011;39326;42.650;23.248;2023-02-20T12:48:57;0.70;;;0.70;;
53040;SDS011;39326;42.650;23.248;2023-02-20T12:54:36;0.93;;;0.70;;
53040;SDS011;39326;42.650;23.248;2023-02-20T12:57:13;1.25;;;0.40;;
53040;SDS011;39326;42.650;23.248;2023-02-20T13:00:01;0.70;;;0.60;;
53040;SDS011;39326;42.650;23.248;2023-02-20T13:02:38;0.80;;;0.53;;
53040;SDS011;39326;42.650;23.248;2023-02-20T13:05:11;0.57;;;0.50;;
53040;SDS011;39326;42.650;23.248;2023-02-20T13:07:51;0.50;;;0.30;;
53040;SDS011;39326;42.650;23.248;2023-02-20T13:10:23;0.70;;;0.70;;
53040;SDS011;39326;42.650;23.248;2023-02-20T13:12:54;0.80;;;0.50;;
53040;SDS011;39326;42.650;23.248;2023-02-20T13:18:33;0.40;;;0.37;;
53040;SDS011;39326;42.650;23.248;2023-02-20T13:20:56;1.00;;;0.70;;
53040;SDS011;39326;42.650;23.248;2023-02-20T13:23:28;0.90;;;0.68;;
53040;SDS011;39326;42.650;23.248;2023-02-20T13:25:56;1.33;;;0.50;;
53040;SDS011;39326;42.650;23.248;2023-02-20T13:28:40;0.80;;;0.70;;
53040;SDS011;39326;42.650;23.248;2023-02-20T13:46:56;1.53;;;1.00;;
53040;SDS011;39326;42.650;23.248;2023-02-20T13:49:52;1.77;;;0.60;;
53040;SDS011;39326;42.650;23.248;2023-02-20T14:08:30;1.10;;;0.60;;
53040;SDS011;39326;42.650;23.248;2023-02-20T14:11:02;1.07;;;0.80;;
53040;SDS011;39326;42.650;23.248;2023-02-20T14:13:29;0.90;;;0.80;;
53040;SDS011;39326;42.650;23.248;2023-02-20T14:15:56;0.90;;;0.70;;
53040;SDS011;39326;42.650;23.248;2023-02-20T14:18:33;0.80;;;0.70;;
53040;SDS011;39326;42.650;23.248;2023-02-20T14:21:16;0.60;;;0.53;;
53040;SDS011;39326;42.650;23.248;2023-02-20T14:23:46;0.80;;;0.60;;
53040;SDS011;39326;42.650;23.248;2023-02-20T14:28:54;0.43;;;0.43;;
53040;SDS011;39326;42.650;23.248;2023-02-20T14:31:25;0.70;;;0.60;;
53040;SDS011;39326;42.650;23.248;2023-02-20T14:33:58;0.80;;;0.73;;
53040;SDS011;39326;42.650;23.248;2023-02-20T14:36:39;1.77;;;0.80;;
53040;SDS011;39326;42.650;23.248;2023-02-20T14:41:56;1.37;;;0.73;;
53040;SDS011;39326;42.650;23.248;2023-02-20T14:44:26;1.43;;;0.70;;
53040;SDS011;39326;42.650;23.248;2023-02-20T14:46:54;1.47;;;0.70;;
53040;SDS011;39326;42.650;23.248;2023-02-20T14:49:31;0.73;;;0.70;;
53040;SDS011;39326;42.650;23.248;2023-02-20T14:52:04;1.00;;;0.70;;
53040;SDS011;39326;42.650;23.248;2023-02-20T14:54:36;1.20;;;0.90;;
53040;SDS011;39326;42.650;23.248;2023-02-20T14:57:02;1.80;;;1.03;;
53040;SDS011;39326;42.650;23.248;2023-02-20T14:59:30;1.07;;;0.70;;
53040;SDS011;39326;42.650;23.248;2023-02-20T15:02:02;0.70;;;0.70;;
53040;SDS011;39326;42.650;23.248;2023-02-20T15:07:13;0.90;;;0.80;;
53040;SDS011;39326;42.650;23.248;2023-02-20T15:09:40;0.83;;;0.60;;
53040;SDS011;39326;42.650;23.248;2023-02-20T15:12:10;1.10;;;0.90;;
53040;SDS011;39326;42.650;23.248;2023-02-20T15:14:44;1.07;;;0.70;;
53040;SDS011;39326;42.650;23.248;2023-02-20T15:17:20;0.87;;;0.60;;
53040;SDS011;39326;42.650;23.248;2023-02-20T15:19:59;1.20;;;0.70;;
53040;SDS011;39326;42.650;23.248;2023-02-20T15:22:39;2.33;;;0.80;;
53040;SDS011;39326;42.650;23.248;2023-02-20T15:30:30;0.83;;;0.80;;
53040;SDS011;39326;42.650;23.248;2023-02-20T15:32:56;1.43;;;1.13;;
53040;SDS011;39326;42.650;23.248;2023-02-20T15:35:26;0.87;;;0.87;;
53040;SDS011;39326;42.650;23.248;2023-02-20T15:37:55;1.00;;;0.80;;
53040;SDS011;39326;42.650;23.248;2023-02-20T15:40:28;1.00;;;0.80;;
53040;SDS011;39326;42.650;23.248;2023-02-20T15:42:58;0.90;;;0.60;;
53040;SDS011;39326;42.650;23.248;2023-02-20T15:45:28;0.97;;;0.90;;
53040;SDS011;39326;42.650;23.248;2023-02-20T15:47:54;0.80;;;0.80;;
53040;SDS011;39326;42.650;23.248;2023-02-20T15:50:21;1.53;;;1.03;;
53040;SDS011;39326;42.650;23.248;2023-02-20T15:52:47;0.93;;;0.80;;
53040;SDS011;39326;42.650;23.248;2023-02-20T15:55:13;0.70;;;0.60;;
53040;SDS011;39326;42.650;23.248;2023-02-20T15:57:42;0.80;;;0.70;;
53040;SDS011;39326;42.650;23.248;2023-02-20T16:00:19;1.23;;;0.90;;
53040;SDS011;39326;42.650;23.248;2023-02-20T16:02:46;1.33;;;0.90;;
53040;SDS011;39326;42.650;23.248;2023-02-20T16:05:12;1.63;;;1.13;;
53040;SDS011;39326;42.650;23.248;2023-02-20T16:07:37;1.27;;;1.07;;
53040;SDS011;39326;42.650;23.248;2023-02-20T16:10:03;1.00;;;0.90;;
53040;SDS011;39326;42.650;23.248;2023-02-20T16:12:29;1.53;;;0.83;;
53040;SDS011;39326;42.650;23.248;2023-02-20T16:14:57;0.93;;;0.77;;
53040;SDS011;39326;42.650;23.248;2023-02-20T16:17:24;1.30;;;1.00;;
53040;SDS011;39326;42.650;23.248;2023-02-20T16:19:52;1.57;;;1.00;;
53040;SDS011;39326;42.650;23.248;2023-02-20T16:22:18;1.63;;;1.50;;
53040;SDS011;39326;42.650;23.248;2023-02-20T16:24:44;1.30;;;0.83;;
53040;SDS011;39326;42.650;23.248;2023-02-20T16:27:18;1.50;;;1.00;;
53040;SDS011;39326;42.650;23.248;2023-02-20T16:29:46;1.67;;;1.10;;
53040;SDS011;39326;42.650;23.248;2023-02-20T16:32:16;1.20;;;0.97;;
53040;SDS011;39326;42.650;23.248;2023-02-20T16:34:44;0.93;;;0.83;;
53040;SDS011;39326;42.650;23.248;2023-02-20T16:37:11;1.47;;;1.00;;
53040;SDS011;39326;42.650;23.248;2023-02-20T16:39:37;1.03;;;0.80;;
53040;SDS011;39326;42.650;23.248;2023-02-20T16:42:26;0.83;;;0.80;;
53040;SDS011;39326;42.650;23.248;2023-02-20T16:44:53;2.63;;;1.03;;
53040;SDS011;39326;42.650;23.248;2023-02-20T16:47:20;1.53;;;0.90;;
53040;SDS011;39326;42.650;23.248;2023-02-20T16:49:48;1.40;;;1.00;;
53040;SDS011;39326;42.650;23.248;2023-02-20T16:52:16;1.23;;;1.07;;
53040;SDS011;39326;42.650;23.248;2023-02-20T16:54:46;1.30;;;1.00;;
53040;SDS011;39326;42.650;23.248;2023-02-20T16:57:13;2.90;;;2.57;;
53040;SDS011;39326;42.650;23.248;2023-02-20T16:59:39;4.60;;;2.57;;
53040;SDS011;39326;42.650;23.248;2023-02-20T17:02:05;1.33;;;0.97;;
53040;SDS011;39326;42.650;23.248;2023-02-20T17:04:31;0.80;;;0.80;;
53040;SDS011;39326;42.650;23.248;2023-02-20T17:06:57;1.13;;;0.90;;
53040;SDS011;39326;42.650;23.248;2023-02-20T17:09:22;0.73;;;0.73;;
53040;SDS011;39326;42.650;23.248;2023-02-20T17:11:48;3.33;;;1.03;;
53040;SDS011;39326;42.650;23.248;2023-02-20T17:14:13;1.43;;;0.93;;